createdAt,value
2017-04-04T00:00:45.652Z,21.28
2017-04-04T00:01:55.890Z,21.25
2017-04-04T00:03:05.814Z,21.28
2017-04-04T00:04:15.740Z,21.32
2017-04-04T00:05:25.354Z,21.28
2017-04-04T00:06:35.284Z,21.25
2017-04-04T00:07:44.582Z,21.27
2017-04-04T00:08:54.201Z,21.29
2017-04-04T00:10:04.441Z,21.25
2017-04-04T00:11:14.681Z,21.24
2017-04-04T00:12:24.927Z,21.25
2017-04-04T00:13:35.180Z,21.27
2017-04-04T00:14:45.418Z,21.19
2017-04-04T00:15:55.038Z,21.21
2017-04-04T00:17:04.971Z,21.28
2017-04-04T00:18:15.214Z,21.29
2017-04-04T00:19:25.457Z,21.27
2017-04-04T00:20:35.077Z,21.27
2017-04-04T00:21:45.326Z,21.25
2017-04-04T00:22:54.944Z,21.29
2017-04-04T00:24:04.869Z,21.32
2017-04-04T00:25:14.793Z,21.32
2017-04-04T00:26:24.723Z,21.27
2017-04-04T00:27:34.967Z,21.25
2017-04-04T00:28:45.213Z,21.27
2017-04-04T00:29:55.136Z,21.22
2017-04-04T00:31:05.070Z,21.24
2017-04-04T00:32:15.309Z,21.22
2017-04-04T00:33:25.550Z,21.29
2017-04-04T00:34:35.791Z,21.25
2017-04-04T00:35:45.723Z,21.28
2017-04-04T00:36:55.960Z,21.29
2017-04-04T00:38:06.197Z,21.27
2017-04-04T00:39:16.447Z,21.28
2017-04-04T00:40:26.684Z,21.22
2017-04-04T00:41:36.609Z,21.24
2017-04-04T00:42:46.846Z,21.21
2017-04-04T00:43:56.458Z,21.21
2017-04-04T00:45:06.117Z,21.24
2017-04-04T00:46:15.736Z,21.24
2017-04-04T00:47:25.662Z,21.29
2017-04-04T00:48:35.589Z,21.28
2017-04-04T00:49:45.207Z,21.28
2017-04-04T00:50:55.458Z,21.24
2017-04-04T00:52:05.069Z,21.24
2017-04-04T00:53:14.678Z,21.21
2017-04-04T00:54:24.610Z,21.24
2017-04-04T00:55:34.854Z,21.28
2017-04-04T00:56:45.091Z,21.27
2017-04-04T00:57:55.327Z,21.24
2017-04-04T00:59:05.253Z,21.28
2017-04-04T01:00:15.493Z,21.29
2017-04-04T01:01:25.430Z,21.21
2017-04-04T01:02:35.675Z,21.25
2017-04-04T01:03:45.604Z,21.27
2017-04-04T01:04:55.530Z,21.29
2017-04-04T01:06:05.767Z,21.21
2017-04-04T01:07:16.007Z,21.25
2017-04-04T01:08:25.938Z,21.24
2017-04-04T01:09:35.870Z,21.25
2017-04-04T01:10:46.111Z,21.22
2017-04-04T01:11:56.346Z,21.35
2017-04-04T01:13:06.274Z,21.25
2017-04-04T01:14:16.199Z,21.22
2017-04-04T01:15:26.442Z,21.31
2017-04-04T01:16:36.681Z,21.29
2017-04-04T01:17:46.924Z,21.32
2017-04-04T01:18:57.164Z,21.25
2017-04-04T01:20:07.405Z,21.29
2017-04-04T01:21:17.647Z,21.25
2017-04-04T01:22:27.575Z,21.22
2017-04-04T01:23:37.504Z,21.28
2017-04-04T01:24:47.740Z,21.25
2017-04-04T01:25:57.669Z,21.21
2017-04-04T01:27:07.910Z,21.22
2017-04-04T01:28:17.529Z,21.29
2017-04-04T01:29:27.770Z,21.22
2017-04-04T01:30:37.387Z,21.22
2017-04-04T01:31:47.312Z,21.27
2017-04-04T01:32:57.246Z,21.24
2017-04-04T01:34:07.490Z,21.24
2017-04-04T01:35:17.726Z,21.25
2017-04-04T01:36:27.965Z,21.25
2017-04-04T01:37:38.203Z,21.25
2017-04-04T01:38:48.446Z,21.25
2017-04-04T01:39:58.058Z,21.27
2017-04-04T01:41:07.986Z,21.29
2017-04-04T01:42:18.271Z,21.27
2017-04-04T01:43:28.201Z,21.29
2017-04-04T01:44:38.447Z,21.25
2017-04-04T01:45:48.064Z,21.27
2017-04-04T01:46:58.312Z,21.25
2017-04-04T01:48:08.549Z,21.31
2017-04-04T01:49:18.483Z,21.22
2017-04-04T01:50:28.725Z,21.21
2017-04-04T01:51:38.338Z,21.27
2017-04-04T01:52:48.583Z,21.24
2017-04-04T01:53:58.822Z,21.27
2017-04-04T01:55:09.065Z,21.22
2017-04-04T01:56:19.299Z,21.27
2017-04-04T01:57:29.226Z,21.38
2017-04-04T01:58:39.468Z,21.25
2017-04-04T01:59:49.093Z,21.24
2017-04-04T02:00:59.338Z,21.25
2017-04-04T02:02:09.261Z,21.24
2017-04-04T02:03:19.509Z,21.31
2017-04-04T02:04:29.745Z,21.31
2017-04-04T02:05:39.670Z,21.19
2017-04-04T02:06:49.594Z,21.25
2017-04-04T02:07:59.848Z,21.29
2017-04-04T02:09:09.777Z,21.24
2017-04-04T02:10:20.011Z,21.22
2017-04-04T02:11:30.258Z,21.25
2017-04-04T02:12:40.496Z,21.28
2017-04-04T02:13:50.743Z,21.27
2017-04-04T02:15:00.669Z,21.22
2017-04-04T02:16:10.279Z,21.21
2017-04-04T02:17:20.518Z,21.28
2017-04-04T02:18:30.760Z,21.29
2017-04-04T02:19:40.691Z,21.25
2017-04-04T02:20:50.621Z,21.29
2017-04-04T02:22:00.864Z,21.24
2017-04-04T02:23:10.791Z,21.25
2017-04-04T02:24:20.404Z,21.24
2017-04-04T02:25:30.332Z,21.31
2017-04-04T02:26:40.259Z,21.24
2017-04-04T02:27:50.188Z,21.24
2017-04-04T02:29:00.111Z,21.31
2017-04-04T02:30:10.041Z,21.42
2017-04-04T02:31:19.974Z,21.44
2017-04-04T02:32:29.591Z,21.47
2017-04-04T02:33:39.835Z,21.54
2017-04-04T02:34:50.081Z,21.54
2017-04-04T02:36:00.014Z,21.54
2017-04-04T02:37:10.255Z,21.58
2017-04-04T02:38:20.495Z,21.53
2017-04-04T02:39:30.738Z,21.58
2017-04-04T02:40:40.983Z,21.58
2017-04-04T02:41:50.599Z,21.65
2017-04-04T02:43:00.838Z,21.58
2017-04-04T02:44:10.767Z,21.58
2017-04-04T02:45:20.384Z,21.64
2017-04-04T02:46:30.622Z,21.61
2017-04-04T02:47:40.233Z,21.62
2017-04-04T02:48:50.159Z,21.54
2017-04-04T02:50:00.400Z,21.56
2017-04-04T02:51:10.330Z,21.65
2017-04-04T02:52:20.251Z,21.61
2017-04-04T02:53:29.863Z,21.58
2017-04-04T02:54:40.110Z,21.61
2017-04-04T02:55:50.352Z,21.65
2017-04-04T02:57:00.591Z,21.61
2017-04-04T02:58:10.838Z,21.64
2017-04-04T02:59:21.078Z,21.62
2017-04-04T03:00:31.005Z,21.59
2017-04-04T03:01:41.250Z,21.65
2017-04-04T03:02:51.489Z,21.64
2017-04-04T03:04:01.102Z,21.64
2017-04-04T03:05:11.360Z,21.65
2017-04-04T03:06:21.606Z,21.65
2017-04-04T03:07:31.534Z,21.68
2017-04-04T03:08:41.144Z,21.61
2017-04-04T03:09:51.386Z,21.69
2017-04-04T03:11:01.620Z,21.65
2017-04-04T03:12:11.552Z,21.64
2017-04-04T03:13:21.479Z,21.65
2017-04-04T03:14:31.716Z,21.72
2017-04-04T03:15:41.645Z,21.67
2017-04-04T03:16:51.886Z,21.69
2017-04-04T03:18:01.845Z,21.58
2017-04-04T03:19:11.774Z,21.69
2017-04-04T03:20:21.388Z,21.69
2017-04-04T03:21:31.628Z,21.64
2017-04-04T03:22:41.555Z,21.65
2017-04-04T03:23:51.791Z,21.71
2017-04-04T03:25:02.049Z,21.59
2017-04-04T03:26:12.288Z,21.69
2017-04-04T03:27:22.529Z,21.67
2017-04-04T03:28:32.775Z,21.65
2017-04-04T03:29:43.016Z,21.64
2017-04-04T03:30:53.261Z,21.64
2017-04-04T03:32:03.188Z,21.61
2017-04-04T03:33:13.440Z,21.59
2017-04-04T03:34:23.364Z,21.58
2017-04-04T03:35:32.668Z,21.56
2017-04-04T03:36:42.909Z,21.56
2017-04-04T03:37:53.159Z,21.54
2017-04-04T03:39:02.148Z,21.59
2017-04-04T03:40:12.389Z,21.54
2017-04-04T03:41:22.629Z,21.61
2017-04-04T03:42:32.867Z,21.52
2017-04-04T03:43:43.152Z,21.61
2017-04-04T03:44:53.395Z,21.54
2017-04-04T03:46:03.325Z,21.47
2017-04-04T03:47:13.248Z,21.49
2017-04-04T03:48:22.867Z,21.53
2017-04-04T03:49:32.793Z,21.49
2017-04-04T03:50:42.718Z,21.59
2017-04-04T03:51:52.956Z,21.56
2017-04-04T03:53:03.199Z,21.52
2017-04-04T03:54:13.129Z,21.54
2017-04-04T03:55:23.366Z,21.54
2017-04-04T03:56:33.611Z,21.58
2017-04-04T03:57:43.539Z,21.53
2017-04-04T03:58:53.777Z,21.54
2017-04-04T04:00:04.029Z,21.52
2017-04-04T04:01:13.954Z,21.52
2017-04-04T04:02:23.882Z,21.53
2017-04-04T04:03:33.814Z,21.53
2017-04-04T04:04:43.428Z,21.52
2017-04-04T04:05:53.360Z,21.52
2017-04-04T04:07:03.595Z,21.5
2017-04-04T04:08:13.519Z,21.53
2017-04-04T04:09:23.963Z,21.5
2017-04-04T04:10:34.205Z,21.53
2017-04-04T04:11:44.448Z,21.58
2017-04-04T04:12:54.690Z,21.53
2017-04-04T04:14:04.612Z,21.58
2017-04-04T04:15:14.537Z,21.54
2017-04-04T04:16:23.839Z,21.54
2017-04-04T04:17:33.764Z,21.52
2017-04-04T04:18:43.391Z,21.56
2017-04-04T04:19:53.005Z,21.52
2017-04-04T04:21:02.617Z,21.49
2017-04-04T04:22:12.240Z,21.52
2017-04-04T04:23:22.165Z,21.54
2017-04-04T04:24:31.790Z,21.56
2017-04-04T04:25:42.035Z,21.49
2017-04-04T04:26:52.317Z,21.44
2017-04-04T04:28:02.555Z,21.44
2017-04-04T04:29:12.799Z,21.44
2017-04-04T04:30:23.043Z,21.46
2017-04-04T04:31:33.282Z,21.47
2017-04-04T04:32:42.588Z,21.34
2017-04-04T04:33:52.830Z,21.42
2017-04-04T04:35:02.759Z,21.54
2017-04-04T04:36:12.694Z,21.54
2017-04-04T04:37:22.623Z,21.53
2017-04-04T04:38:32.241Z,21.5
2017-04-04T04:39:42.484Z,21.52
2017-04-04T04:40:52.725Z,21.53
2017-04-04T04:42:02.968Z,21.56
2017-04-04T04:43:12.910Z,21.54
2017-04-04T04:44:23.147Z,21.53
2017-04-04T04:45:33.387Z,21.56
2017-04-04T04:46:43.628Z,21.54
2017-04-04T04:47:53.552Z,21.59
2017-04-04T04:49:03.477Z,21.59
2017-04-04T04:50:13.764Z,21.53
2017-04-04T04:51:23.710Z,21.56
2017-04-04T04:52:33.952Z,21.5
2017-04-04T04:53:44.184Z,21.53
2017-04-04T04:54:54.432Z,21.59
2017-04-04T04:56:04.666Z,21.54
2017-04-04T04:57:14.601Z,21.5
2017-04-04T04:58:24.214Z,21.52
2017-04-04T04:59:34.154Z,21.52
2017-04-04T05:00:43.773Z,21.56
2017-04-04T05:01:53.077Z,21.56
2017-04-04T05:03:03.007Z,21.56
2017-04-04T05:04:12.625Z,21.64
2017-04-04T05:05:22.555Z,21.65
2017-04-04T05:06:32.484Z,21.67
2017-04-04T05:07:42.727Z,21.65
2017-04-04T05:08:52.651Z,21.61
2017-04-04T05:10:02.263Z,21.59
2017-04-04T05:11:12.502Z,21.58
2017-04-04T05:12:22.738Z,21.54
2017-04-04T05:13:32.977Z,21.52
2017-04-04T05:14:43.215Z,21.56
2017-04-04T05:15:53.150Z,21.58
2017-04-04T05:17:03.389Z,21.58
2017-04-04T05:18:13.356Z,21.58
2017-04-04T05:19:23.608Z,21.62
2017-04-04T05:20:33.533Z,21.59
2017-04-04T05:21:43.460Z,21.56
2017-04-04T05:22:53.086Z,21.54
2017-04-04T05:24:03.020Z,21.56
2017-04-04T05:25:12.635Z,21.53
2017-04-04T05:26:22.874Z,21.59
2017-04-04T05:27:32.801Z,21.58
2017-04-04T05:28:42.722Z,21.54
2017-04-04T05:29:52.954Z,21.58
2017-04-04T05:31:03.195Z,21.58
2017-04-04T05:32:13.438Z,21.59
2017-04-04T05:33:23.364Z,21.56
2017-04-04T05:34:33.600Z,21.56
2017-04-04T05:35:43.529Z,21.59
2017-04-04T05:36:53.774Z,21.53
2017-04-04T05:38:03.704Z,21.59
2017-04-04T05:39:13.954Z,21.58
2017-04-04T05:40:23.887Z,21.62
2017-04-04T05:41:33.821Z,21.58
2017-04-04T05:42:44.121Z,21.54
2017-04-04T05:43:54.057Z,21.54
2017-04-04T05:45:04.298Z,21.58
2017-04-04T05:46:14.223Z,21.53
2017-04-04T05:47:24.466Z,21.58
2017-04-04T05:48:34.710Z,21.59
2017-04-04T05:49:44.945Z,21.59
2017-04-04T05:50:55.188Z,21.58
2017-04-04T05:52:04.504Z,21.56
2017-04-04T05:53:14.749Z,21.58
2017-04-04T05:54:24.356Z,21.58
2017-04-04T05:55:34.593Z,21.61
2017-04-04T05:56:44.832Z,21.58
2017-04-04T05:57:55.078Z,21.56
2017-04-04T05:59:04.698Z,21.58
2017-04-04T06:00:14.318Z,21.58
2017-04-04T06:01:23.970Z,21.56
2017-04-04T06:02:33.893Z,21.56
2017-04-04T06:03:43.821Z,21.54
2017-04-04T06:04:54.081Z,21.56
2017-04-04T06:06:03.695Z,21.58
2017-04-04T06:07:13.316Z,21.53
2017-04-04T06:08:23.556Z,21.56
2017-04-04T06:09:33.171Z,21.58
2017-04-04T06:10:43.462Z,21.59
2017-04-04T06:11:53.713Z,21.58
2017-04-04T06:13:04.006Z,21.59
2017-04-04T06:14:13.934Z,21.59
2017-04-04T06:15:24.214Z,21.58
2017-04-04T06:16:34.464Z,21.52
2017-04-04T06:17:44.698Z,21.58
2017-04-04T06:18:54.932Z,21.59
2017-04-04T06:20:04.862Z,21.61
2017-04-04T06:21:15.102Z,21.5
2017-04-04T06:22:25.036Z,21.58
2017-04-04T06:23:34.655Z,21.59
2017-04-04T06:24:44.890Z,21.59
2017-04-04T06:25:54.821Z,21.54
2017-04-04T06:27:04.434Z,21.64
2017-04-04T06:28:14.361Z,21.54
2017-04-04T06:29:23.972Z,21.54
2017-04-04T06:30:34.213Z,21.59
2017-04-04T06:31:44.147Z,21.58
2017-04-04T06:32:54.392Z,21.59
2017-04-04T06:34:04.007Z,21.59
2017-04-04T06:35:14.246Z,21.58
2017-04-04T06:36:24.176Z,21.56
2017-04-04T06:37:34.420Z,21.59
2017-04-04T06:38:44.038Z,21.58
2017-04-04T06:39:54.278Z,21.56
2017-04-04T06:41:03.893Z,21.62
2017-04-04T06:42:13.506Z,21.56
2017-04-04T06:43:23.743Z,21.58
2017-04-04T06:44:33.056Z,21.61
2017-04-04T06:45:42.983Z,21.56
2017-04-04T06:46:52.924Z,21.56
2017-04-04T06:48:03.162Z,21.59
2017-04-04T06:49:13.407Z,21.59
2017-04-04T06:50:23.019Z,21.53
2017-04-04T06:51:33.261Z,21.53
2017-04-04T06:52:43.193Z,21.5
2017-04-04T06:53:53.433Z,21.52
2017-04-04T06:55:03.357Z,21.5
2017-04-04T06:56:13.282Z,21.56
2017-04-04T06:57:23.219Z,21.54
2017-04-04T06:58:33.204Z,21.52
2017-04-04T06:59:43.444Z,21.53
2017-04-04T07:00:53.681Z,21.56
2017-04-04T07:02:03.613Z,21.56
2017-04-04T07:03:13.863Z,21.58
2017-04-04T07:04:24.108Z,21.56
2017-04-04T07:05:34.349Z,21.58
2017-04-04T07:06:44.277Z,21.54
2017-04-04T07:07:54.558Z,21.53
2017-04-04T07:09:04.797Z,21.53
2017-04-04T07:10:14.740Z,21.49
2017-04-04T07:11:24.043Z,21.54
2017-04-04T07:12:34.282Z,21.54
2017-04-04T07:13:44.203Z,21.53
2017-04-04T07:14:54.125Z,21.59
2017-04-04T07:16:04.363Z,21.53
2017-04-04T07:17:14.298Z,21.53
2017-04-04T07:18:24.541Z,21.49
2017-04-04T07:19:34.806Z,21.56
2017-04-04T07:20:44.428Z,21.5
2017-04-04T07:21:54.355Z,21.58
2017-04-04T07:23:04.604Z,21.53
2017-04-04T07:24:14.847Z,21.61
2017-04-04T07:25:25.090Z,21.52
2017-04-04T07:26:34.078Z,21.5
2017-04-04T07:27:44.050Z,21.53
2017-04-04T07:28:53.662Z,21.54
2017-04-04T07:30:03.587Z,21.58
2017-04-04T07:31:13.514Z,21.5
2017-04-04T07:32:23.440Z,21.47
2017-04-04T07:33:33.680Z,21.59
2017-04-04T07:34:43.609Z,21.56
2017-04-04T07:35:53.545Z,21.54
2017-04-04T07:37:03.792Z,21.53
2017-04-04T07:38:14.035Z,21.54
2017-04-04T07:39:23.965Z,21.56
2017-04-04T07:40:34.208Z,21.52
2017-04-04T07:41:44.451Z,21.53
2017-04-04T07:42:53.751Z,21.54
2017-04-04T07:44:03.678Z,21.54
2017-04-04T07:45:13.657Z,21.59
2017-04-04T07:46:23.599Z,21.54
2017-04-04T07:47:33.841Z,21.52
2017-04-04T07:48:43.767Z,21.49
2017-04-04T07:49:53.696Z,21.52
2017-04-04T07:51:03.933Z,21.54
2017-04-04T07:52:13.860Z,21.5
2017-04-04T07:53:24.097Z,21.52
2017-04-04T07:54:33.709Z,21.58
2017-04-04T07:55:43.948Z,21.59
2017-04-04T07:56:54.189Z,21.52
2017-04-04T07:58:03.850Z,21.56
2017-04-04T07:59:14.086Z,21.56
2017-04-04T08:00:24.333Z,21.54
2017-04-04T08:01:34.260Z,21.47
2017-04-04T08:02:44.192Z,21.52
2017-04-04T08:03:53.497Z,21.58
2017-04-04T08:05:03.768Z,21.53
2017-04-04T08:06:14.009Z,21.53
2017-04-04T08:07:24.256Z,21.53
2017-04-04T08:08:34.188Z,21.58
2017-04-04T08:09:43.804Z,21.56
2017-04-04T08:10:54.050Z,21.54
2017-04-04T08:12:03.980Z,21.56
2017-04-04T08:13:14.235Z,21.54
2017-04-04T08:14:23.853Z,21.53
2017-04-04T08:15:34.091Z,21.54
2017-04-04T08:16:44.333Z,21.5
2017-04-04T08:17:53.954Z,21.52
2017-04-04T08:19:04.195Z,21.56
2017-04-04T08:20:14.126Z,21.58
2017-04-04T08:21:24.075Z,21.56
2017-04-04T08:22:34.315Z,21.5
2017-04-04T08:23:44.236Z,21.53
2017-04-04T08:24:54.483Z,21.52
2017-04-04T08:26:04.098Z,21.54
2017-04-04T08:27:14.028Z,21.56
2017-04-04T08:28:24.270Z,21.56
2017-04-04T08:29:33.573Z,21.5
2017-04-04T08:30:43.821Z,21.5
2017-04-04T08:31:54.060Z,21.59
2017-04-04T08:33:03.988Z,21.58
2017-04-04T08:34:14.229Z,21.56
2017-04-04T08:35:24.487Z,21.5
2017-04-04T08:36:34.735Z,21.54
2017-04-04T08:37:44.352Z,21.5
2017-04-04T08:38:54.271Z,21.5
2017-04-04T08:40:04.205Z,21.52
2017-04-04T08:41:13.818Z,21.56
2017-04-04T08:42:23.750Z,21.54
2017-04-04T08:43:33.363Z,21.54
2017-04-04T08:44:43.605Z,21.56
2017-04-04T08:45:53.854Z,21.54
2017-04-04T08:47:04.101Z,21.56
2017-04-04T08:48:14.346Z,21.56
2017-04-04T08:49:24.582Z,21.49
2017-04-04T08:50:34.826Z,21.5
2017-04-04T08:51:45.075Z,21.49
2017-04-04T08:52:55.317Z,21.53
2017-04-04T08:54:05.558Z,21.59
2017-04-04T08:55:15.178Z,21.58
2017-04-04T08:56:25.108Z,21.62
2017-04-04T08:57:35.039Z,21.53
2017-04-04T08:58:45.281Z,21.54
2017-04-04T08:59:55.206Z,21.54
2017-04-04T09:01:05.145Z,21.44
2017-04-04T09:02:15.388Z,21.58
2017-04-04T09:03:25.635Z,21.54
2017-04-04T09:04:35.871Z,21.54
2017-04-04T09:05:46.115Z,21.56
2017-04-04T09:06:56.356Z,21.52
2017-04-04T09:08:06.599Z,21.54
2017-04-04T09:09:16.842Z,21.52
2017-04-04T09:10:26.775Z,21.54
2017-04-04T09:11:36.699Z,21.56
2017-04-04T09:12:46.947Z,21.52
2017-04-04T09:13:56.562Z,21.5
2017-04-04T09:15:06.493Z,21.52
2017-04-04T09:16:16.423Z,21.59
2017-04-04T09:17:26.376Z,21.54
2017-04-04T09:18:36.622Z,21.49
2017-04-04T09:19:46.548Z,21.5
2017-04-04T09:20:56.794Z,21.54
2017-04-04T09:22:07.033Z,21.5
2017-04-04T09:23:17.270Z,21.53
2017-04-04T09:24:27.203Z,21.52
2017-04-04T09:25:37.440Z,21.54
2017-04-04T09:26:47.367Z,21.52
2017-04-04T09:27:57.295Z,21.44
2017-04-04T09:29:07.218Z,21.5
2017-04-04T09:30:17.147Z,21.52
2017-04-04T09:31:27.386Z,21.5
2017-04-04T09:32:37.663Z,21.52
2017-04-04T09:33:47.592Z,21.43
2017-04-04T09:34:57.830Z,21.59
2017-04-04T09:36:07.758Z,21.53
2017-04-04T09:37:17.372Z,21.54
2017-04-04T09:38:27.615Z,21.54
2017-04-04T09:39:37.855Z,21.49
2017-04-04T09:40:47.783Z,21.54
2017-04-04T09:41:58.237Z,21.53
2017-04-04T09:43:07.540Z,21.5
2017-04-04T09:44:18.072Z,21.56
2017-04-04T09:45:28.309Z,21.54
2017-04-04T09:46:38.235Z,21.58
2017-04-04T09:47:48.468Z,21.54
2017-04-04T09:48:58.389Z,21.54
2017-04-04T09:50:08.321Z,21.62
2017-04-04T09:51:18.249Z,21.59
2017-04-04T09:52:28.179Z,21.53
2017-04-04T09:53:38.122Z,21.52
2017-04-04T09:54:48.370Z,21.58
2017-04-04T09:55:58.618Z,21.5
2017-04-04T09:57:08.237Z,21.54
2017-04-04T09:58:18.165Z,21.58
2017-04-04T09:59:28.090Z,21.58
2017-04-04T10:00:38.328Z,21.61
2017-04-04T10:01:48.568Z,21.54
2017-04-04T10:02:58.497Z,21.52
2017-04-04T10:04:08.740Z,21.52
2017-04-04T10:05:18.983Z,21.56
2017-04-04T10:06:29.227Z,21.54
2017-04-04T10:07:39.511Z,21.52
2017-04-04T10:08:49.438Z,21.56
2017-04-04T10:09:59.676Z,21.54
2017-04-04T10:11:09.917Z,21.53
2017-04-04T10:12:20.160Z,21.46
2017-04-04T10:13:30.082Z,21.53
2017-04-04T10:14:39.697Z,21.54
2017-04-04T10:15:49.323Z,21.56
2017-04-04T10:16:59.564Z,21.59
2017-04-04T10:18:09.805Z,21.54
2017-04-04T10:19:19.733Z,21.58
2017-04-04T10:20:29.978Z,21.5
2017-04-04T10:21:40.214Z,21.49
2017-04-04T10:22:50.142Z,21.58
2017-04-04T10:24:00.380Z,21.53
2017-04-04T10:25:10.313Z,21.56
2017-04-04T10:26:20.595Z,21.54
2017-04-04T10:27:30.227Z,21.58
2017-04-04T10:28:40.155Z,21.58
2017-04-04T10:29:50.396Z,21.5
2017-04-04T10:31:00.647Z,21.58
2017-04-04T10:32:10.883Z,21.54
2017-04-04T10:33:20.808Z,21.61
2017-04-04T10:34:30.740Z,21.54
2017-04-04T10:35:40.665Z,21.49
2017-04-04T10:36:50.600Z,21.59
2017-04-04T10:38:00.839Z,21.54
2017-04-04T10:39:10.774Z,21.53
2017-04-04T10:40:21.023Z,21.59
2017-04-04T10:41:30.970Z,21.53
2017-04-04T10:42:41.214Z,21.58
2017-04-04T10:43:51.141Z,21.56
2017-04-04T10:45:01.378Z,21.56
2017-04-04T10:46:10.991Z,21.56
2017-04-04T10:47:20.926Z,21.56
2017-04-04T10:48:31.208Z,21.54
2017-04-04T10:49:41.133Z,21.5
2017-04-04T10:50:51.054Z,21.52
2017-04-04T10:52:00.679Z,21.56
2017-04-04T10:53:10.607Z,21.49
2017-04-04T10:54:20.543Z,21.54
2017-04-04T10:55:30.778Z,21.54
2017-04-04T10:56:40.396Z,21.54
2017-04-04T10:57:50.322Z,21.58
2017-04-04T10:59:00.559Z,21.56
2017-04-04T11:00:10.812Z,21.5
2017-04-04T11:01:21.056Z,21.5
2017-04-04T11:02:31.291Z,21.58
2017-04-04T11:03:41.214Z,21.52
2017-04-04T11:04:51.462Z,21.5
2017-04-04T11:06:01.712Z,21.54
2017-04-04T11:07:11.333Z,21.5
2017-04-04T11:08:21.575Z,21.59
2017-04-04T11:09:31.503Z,21.58
2017-04-04T11:10:41.114Z,21.54
2017-04-04T11:11:51.038Z,21.54
2017-04-04T11:13:00.963Z,21.52
2017-04-04T11:14:11.201Z,21.5
2017-04-04T11:15:21.445Z,21.5
2017-04-04T11:16:31.388Z,21.47
2017-04-04T11:17:41.002Z,21.53
2017-04-04T11:18:51.241Z,21.47
2017-04-04T11:20:01.168Z,21.58
2017-04-04T11:21:11.413Z,21.53
2017-04-04T11:22:21.656Z,21.49
2017-04-04T11:23:31.901Z,21.58
2017-04-04T11:24:42.142Z,21.5
2017-04-04T11:25:52.385Z,21.5
2017-04-04T11:27:02.317Z,21.54
2017-04-04T11:28:11.935Z,21.56
2017-04-04T11:29:21.864Z,21.53
2017-04-04T11:30:31.791Z,21.52
2017-04-04T11:31:41.716Z,21.49
2017-04-04T11:32:51.969Z,21.49
2017-04-04T11:34:02.208Z,21.46
2017-04-04T11:35:12.287Z,21.53
2017-04-04T11:36:22.216Z,21.5
2017-04-04T11:37:32.142Z,21.59
2017-04-04T11:38:41.762Z,21.52
2017-04-04T11:39:51.999Z,21.54
2017-04-04T11:41:01.651Z,21.49
2017-04-04T11:42:11.583Z,21.56
2017-04-04T11:43:21.200Z,21.56
2017-04-04T11:44:31.144Z,21.52
2017-04-04T11:45:41.392Z,21.49
2017-04-04T11:46:51.009Z,21.47
2017-04-04T11:48:00.932Z,21.54
2017-04-04T11:49:10.853Z,21.49
2017-04-04T11:50:21.104Z,21.56
2017-04-04T11:51:31.346Z,21.54
2017-04-04T11:52:41.276Z,21.54
2017-04-04T11:53:51.201Z,21.53
2017-04-04T11:55:01.131Z,21.44
2017-04-04T11:56:10.439Z,21.53
2017-04-04T11:57:20.366Z,21.61
2017-04-04T11:58:29.669Z,21.58
2017-04-04T11:59:39.595Z,21.62
2017-04-04T12:00:49.518Z,21.42
2017-04-04T12:01:59.449Z,21.52
2017-04-04T12:03:09.690Z,21.54
2017-04-04T12:04:19.924Z,21.52
2017-04-04T12:05:30.159Z,21.56
2017-04-04T12:06:40.414Z,21.5
2017-04-04T12:07:50.653Z,21.52
2017-04-04T12:09:00.577Z,21.43
2017-04-04T12:10:10.826Z,21.59
2017-04-04T12:11:20.752Z,21.52
2017-04-04T12:12:30.679Z,21.5
2017-04-04T12:13:40.919Z,21.52
2017-04-04T12:14:51.156Z,21.54
2017-04-04T12:16:01.396Z,21.53
2017-04-04T12:17:11.642Z,21.53
2017-04-04T12:18:21.566Z,21.58
2017-04-04T12:19:31.806Z,21.52
2017-04-04T12:20:42.043Z,21.56
2017-04-04T12:21:52.290Z,21.44
2017-04-04T12:23:02.229Z,21.5
2017-04-04T12:24:11.839Z,21.4
2017-04-04T12:25:21.449Z,21.56
2017-04-04T12:26:31.690Z,21.38
2017-04-04T12:27:41.615Z,21.43
2017-04-04T12:28:51.592Z,21.49
2017-04-04T12:30:01.836Z,21.54
2017-04-04T12:31:12.072Z,21.59
2017-04-04T12:32:22.312Z,21.5
2017-04-04T12:33:31.970Z,21.56
2017-04-04T12:34:41.910Z,21.58
2017-04-04T12:35:51.834Z,21.53
2017-04-04T12:37:02.077Z,21.58
2017-04-04T12:38:12.323Z,21.58
2017-04-04T12:39:22.566Z,21.56
2017-04-04T12:40:32.822Z,21.53
2017-04-04T12:41:42.437Z,21.53
2017-04-04T12:42:52.682Z,21.53
2017-04-04T12:44:02.612Z,21.59
2017-04-04T12:45:12.544Z,21.53
2017-04-04T12:46:22.790Z,21.52
2017-04-04T12:47:33.035Z,21.47
2017-04-04T12:48:43.283Z,21.49
2017-04-04T12:49:53.211Z,21.46
2017-04-04T12:51:03.456Z,21.4
2017-04-04T12:52:13.698Z,21.52
2017-04-04T12:53:23.630Z,21.49
2017-04-04T12:54:33.883Z,21.52
2017-04-04T12:55:43.815Z,21.14
2017-04-04T12:56:53.790Z,20.28
2017-04-04T12:58:03.403Z,19.58
2017-04-04T12:59:13.651Z,19.26
2017-04-04T13:00:23.573Z,19.11
2017-04-04T13:01:33.814Z,19.06
2017-04-04T13:02:43.739Z,18.94
2017-04-04T13:03:53.664Z,18.81
2017-04-04T13:05:03.598Z,18.81
2017-04-04T13:06:13.839Z,18.91
2017-04-04T13:07:23.770Z,18.95
2017-04-04T13:08:33.704Z,18.91
2017-04-04T13:09:43.988Z,18.9
2017-04-04T13:10:54.229Z,18.76
2017-04-04T13:12:04.497Z,18.65
2017-04-04T13:13:14.732Z,18.65
2017-04-04T13:14:24.660Z,18.55
2017-04-04T13:15:34.909Z,18.47
2017-04-04T13:16:45.151Z,18.54
2017-04-04T13:17:54.454Z,18.44
2017-04-04T13:19:04.075Z,18.39
2017-04-04T13:20:14.321Z,18.78
2017-04-04T13:21:23.937Z,19.19
2017-04-04T13:22:33.873Z,19.59
2017-04-04T13:23:44.110Z,19.86
2017-04-04T13:24:54.035Z,20.05
2017-04-04T13:26:04.278Z,20.2
2017-04-04T13:27:14.208Z,20.32
2017-04-04T13:28:23.824Z,20.41
2017-04-04T13:29:34.064Z,20.48
2017-04-04T13:30:44.307Z,20.55
2017-04-04T13:31:54.551Z,20.62
2017-04-04T13:33:04.820Z,20.76
2017-04-04T13:34:15.063Z,20.72
2017-04-04T13:35:24.676Z,20.74
2017-04-04T13:36:34.919Z,20.73
2017-04-04T13:37:44.850Z,20.79
2017-04-04T13:38:54.786Z,20.73
2017-04-04T13:40:04.706Z,20.77
2017-04-04T13:41:14.663Z,20.76
2017-04-04T13:42:24.917Z,20.77
2017-04-04T13:43:35.158Z,20.76
2017-04-04T13:44:45.084Z,20.8
2017-04-04T13:45:55.010Z,20.79
2017-04-04T13:47:05.257Z,20.84
2017-04-04T13:48:15.508Z,20.73
2017-04-04T13:49:25.120Z,20.77
2017-04-04T13:50:35.045Z,20.77
2017-04-04T13:51:45.284Z,20.92
2017-04-04T13:52:55.527Z,20.92
2017-04-04T13:54:05.453Z,20.91
2017-04-04T13:55:15.699Z,20.99
2017-04-04T13:56:25.934Z,20.95
2017-04-04T13:57:36.180Z,20.94
2017-04-04T13:58:46.111Z,20.94
2017-04-04T13:59:56.041Z,21.03
2017-04-04T14:01:06.282Z,21.07
2017-04-04T14:02:15.894Z,21.03
2017-04-04T14:03:25.827Z,21.04
2017-04-04T14:04:36.071Z,21.06
2017-04-04T14:05:45.689Z,21.09
2017-04-04T14:06:55.615Z,21.04
2017-04-04T14:08:05.852Z,20.95
2017-04-04T14:09:16.094Z,21.01
2017-04-04T14:10:26.331Z,21.01
2017-04-04T14:11:36.265Z,21.04
2017-04-04T14:12:46.192Z,21.01
2017-04-04T14:13:55.805Z,21.1
2017-04-04T14:15:06.047Z,21.07
2017-04-04T14:16:15.977Z,21.13
2017-04-04T14:17:25.905Z,21.09
2017-04-04T14:18:35.848Z,21.12
2017-04-04T14:19:46.095Z,21.13
2017-04-04T14:20:56.335Z,21.09
2017-04-04T14:22:05.953Z,21.06
2017-04-04T14:23:16.193Z,21.12
2017-04-04T14:24:26.440Z,21.09
2017-04-04T14:25:36.682Z,21.1
2017-04-04T14:26:46.611Z,21.1
2017-04-04T14:27:56.848Z,21.12
2017-04-04T14:29:06.781Z,21.09
2017-04-04T14:30:16.399Z,21.1
2017-04-04T14:31:26.641Z,21.1
2017-04-04T14:32:36.569Z,21.1
2017-04-04T14:33:46.497Z,21.07
2017-04-04T14:34:56.741Z,21.1
2017-04-04T14:36:06.988Z,21.07
2017-04-04T14:37:17.233Z,21.06
2017-04-04T14:38:26.851Z,21.03
2017-04-04T14:39:36.466Z,21.13
2017-04-04T14:40:46.395Z,21.09
2017-04-04T14:41:56.330Z,21.12
2017-04-04T14:43:06.574Z,21.16
2017-04-04T14:44:16.524Z,21.14
2017-04-04T14:45:26.472Z,21.04
2017-04-04T14:46:36.397Z,21.1
2017-04-04T14:47:46.634Z,21.1
2017-04-04T14:48:55.933Z,21.09
2017-04-04T14:50:05.864Z,21.19
2017-04-04T14:51:15.477Z,21.24
2017-04-04T14:52:25.401Z,21.24
2017-04-04T14:53:35.641Z,21.21
2017-04-04T14:54:45.892Z,21.16
2017-04-04T14:55:56.137Z,21.17
2017-04-04T14:57:05.755Z,21.22
2017-04-04T14:58:16.003Z,21.1
2017-04-04T14:59:26.246Z,21.06
2017-04-04T15:00:36.690Z,21.14
2017-04-04T15:01:46.931Z,21.1
2017-04-04T15:02:56.556Z,21.1
2017-04-04T15:04:06.798Z,21.14